Time;durP1;ratioP1;P1;durP2;ratioP2;P2;SDS_P1;SDS_P2;PMS_P1;PMS_P2;Temp;Humidity;BMP_temperature;BMP_pressure;BME280_temperature;BME280_humidity;BME280_pressure;Samples;Min_cycle;Max_cycle;Signal;HPM_P1;HPM_P2
2022/10/01 00:00:23;;;;;;;;;;;;;;;12.79;100.00;97952.44;1623249;86;25041;-84
2022/10/01 00:02:52;;;;;;;;;;;;;;;12.84;100.00;97956.80;1625084;86;20296;-84
2022/10/01 00:05:19;;;;;;;;;;;;;;;12.83;100.00;97952.03;1623879;86;26168;-83
2022/10/01 00:07:45;;;;;;;;;;;;;;;12.82;100.00;97953.50;1622130;86;25133;-83
2022/10/01 00:10:12;;;;;;;;;;;;;;;12.80;100.00;97954.94;1625959;86;20299;-83
2022/10/01 00:12:50;;;;;;;;;;;;;;;12.79;100.00;97955.89;1627946;86;24805;-84
2022/10/01 00:15:14;;;;;;;;;;;;;;;12.81;100.00;97967.11;1621456;85;22020;-84
2022/10/01 00:17:41;;;;;;;;;;;;;;;12.81;100.00;97961.02;1624208;86;26149;-84
2022/10/01 00:20:10;;;;;;;;;;;;;;;12.80;100.00;97956.73;1649793;84;20397;-84
2022/10/01 00:22:36;;;;;;;;;;;;;;;12.79;100.00;97955.89;1661916;84;20260;-84
2022/10/01 00:25:07;;;;;;;;;;;;;;;12.80;100.00;97957.56;1665540;83;20249;-84
2022/10/01 00:27:31;;;;;;;;;;;;;;;12.79;100.00;97958.52;1662786;83;21967;-84
2022/10/01 00:29:56;;;;;;;;;;;;;;;12.79;100.00;97955.06;1659909;84;21819;-83
2022/10/01 00:32:23;;;;;;;;;;;;;;;12.77;100.00;97949.93;1659898;84;20316;-84
2022/10/01 00:34:49;;;;;;;;;;;;;;;12.76;100.00;97945.67;1662009;84;20278;-84
2022/10/01 00:37:17;;;;;;;;;;;;;;;12.75;100.00;97949.73;1667108;84;20542;-84
2022/10/01 00:39:43;;;;;;;;;;;;;;;12.73;100.00;97959.52;1661636;84;21979;-84
2022/10/01 00:42:14;;;;;;;;;;;;;;;12.68;100.00;97961.23;1660335;84;20981;-84
2022/10/01 00:44:40;;;;;;;;;;;;;;;12.68;100.00;97959.92;1661840;84;24711;-84
2022/10/01 00:47:12;;;;;;;;;;;;;;;12.69;100.00;97960.76;1641242;85;33966;-83
2022/10/01 00:49:42;;;;;;;;;;;;;;;12.68;100.00;97963.03;1661168;85;24630;-83
2022/10/01 00:52:09;;;;;;;;;;;;;;;12.68;100.00;97970.42;1664506;84;21885;-84
2022/10/01 00:54:45;;;;;;;;;;;;;;;12.66;100.00;97972.81;1661757;85;26005;-84
2022/10/01 00:57:14;;;;;;;;;;;;;;;12.67;100.00;97975.32;1657644;84;24517;-84
2022/10/01 00:59:40;;;;;;;;;;;;;;;12.66;100.00;97974.97;1659397;84;20296;-83
2022/10/01 01:02:06;;;;;;;;;;;;;;;12.64;100.00;97978.22;1660030;84;24533;-83
2022/10/01 01:04:32;;;;;;;;;;;;;;;12.62;100.00;97977.98;1661202;84;22012;-84
2022/10/01 01:06:59;;;;;;;;;;;;;;;12.60;100.00;97980.73;1660130;84;26024;-84
2022/10/01 01:09:27;;;;;;;;;;;;;;;12.60;100.00;97976.80;1680384;84;23986;-84
2022/10/01 01:12:12;;;;;;;;;;;;;;;12.61;100.00;97969.28;1654891;86;20234;-84
2022/10/01 01:14:49;;;;;;;;;;;;;;;12.57;100.00;97971.82;1658981;84;24978;-84
2022/10/01 01:17:20;;;;;;;;;;;;;;;12.57;100.00;97969.20;1660895;85;22176;-84
2022/10/01 01:19:48;;;;;;;;;;;;;;;12.58;100.00;97965.62;1659952;84;26831;-84
2022/10/01 01:22:21;;;;;;;;;;;;;;;12.58;100.00;97965.62;1650393;85;25131;-84
2022/10/01 01:24:49;;;;;;;;;;;;;;;12.55;100.00;97956.67;1651477;84;20333;-84
2022/10/01 01:27:16;;;;;;;;;;;;;;;12.55;100.00;97955.36;1651791;85;24872;-84
2022/10/01 01:29:44;;;;;;;;;;;;;;;12.51;100.00;97955.28;1624235;87;21994;-84
2022/10/01 01:32:12;;;;;;;;;;;;;;;12.52;100.00;97956.47;1650245;84;25798;-84
2022/10/01 01:34:39;;;;;;;;;;;;;;;12.57;100.00;97967.41;1652692;85;24650;-84
2022/10/01 01:37:10;;;;;;;;;;;;;;;12.62;100.00;97972.73;1654168;84;20280;-84
2022/10/01 01:39:36;;;;;;;;;;;;;;;12.64;100.00;97970.83;1655632;84;24747;-84
2022/10/01 01:42:04;;;;;;;;;;;;;;;12.67;100.00;97971.86;1651431;85;21238;-84
2022/10/01 01:44:32;;;;;;;;;;;;;;;12.70;100.00;97967.67;1653291;84;25935;-84
2022/10/01 01:47:00;;;;;;;;;;;;;;;12.71;100.00;97968.84;1629777;86;24774;-84
2022/10/01 01:49:26;;;;;;;;;;;;;;;12.73;100.00;97969.55;1650394;85;20226;-85
2022/10/01 01:52:00;;;;;;;;;;;;;;;12.73;100.00;97976.11;1648508;85;24810;-84
2022/10/01 01:54:28;;;;;;;;;;;;;;;12.71;100.00;97978.03;1650820;85;22075;-84
2022/10/01 01:57:04;;;;;;;;;;;;;;;12.71;100.00;97984.59;1654608;85;26028;-85
2022/10/01 01:59:28;;;;;;;;;;;;;;;12.70;100.00;97979.02;1648951;85;24513;-85
2022/10/01 02:01:54;;;;;;;;;;;;;;;12.72;100.00;97973.61;1652753;84;20234;-84
2022/10/01 02:04:22;;;;;;;;;;;;;;;12.70;100.00;97972.93;1651696;85;24922;-84
2022/10/01 02:06:50;;;;;;;;;;;;;;;12.71;100.00;97982.47;1651066;85;22134;-84
2022/10/01 02:09:36;;;;;;;;;;;;;;;12.70;100.00;97967.67;1654349;85;25981;-83
2022/10/01 02:12:20;;;;;;;;;;;;;;;12.67;100.00;97966.13;1653517;84;24516;-84
2022/10/01 02:14:58;;;;;;;;;;;;;;;12.72;100.00;97968.36;1650699;85;20222;-84
2022/10/01 02:17:38;;;;;;;;;;;;;;;12.73;100.00;97976.11;1650809;85;25601;-85
2022/10/01 02:20:09;;;;;;;;;;;;;;;12.77;100.00;97981.44;1644920;84;21999;-85
2022/10/01 02:22:40;;;;;;;;;;;;;;;12.78;100.00;97982.27;1615289;87;26137;-84
2022/10/01 02:25:08;;;;;;;;;;;;;;;12.77;100.00;97982.75;1612894;87;24616;-84
2022/10/01 02:27:47;;;;;;;;;;;;;;;12.75;100.00;97987.33;1625770;87;20269;-84
2022/10/01 02:30:14;;;;;;;;;;;;;;;12.70;100.00;97988.20;1621856;87;24758;-84
2022/10/01 02:32:44;;;;;;;;;;;;;;;12.72;100.00;97987.57;1622710;87;22821;-85
2022/10/01 02:35:11;;;;;;;;;;;;;;;12.75;100.00;97982.55;1620624;85;26149;-85
2022/10/01 02:37:39;;;;;;;;;;;;;;;12.80;100.00;97986.92;1622799;86;24504;-85
2022/10/01 02:40:14;;;;;;;;;;;;;;;12.82;100.00;97985.81;1620123;87;20243;-85
2022/10/01 02:42:51;;;;;;;;;;;;;;;12.84;100.00;97985.21;1612034;87;24925;-84
2022/10/01 02:45:21;;;;;;;;;;;;;;;12.85;100.00;97982.11;1621033;87;21986;-85
2022/10/01 02:47:49;;;;;;;;;;;;;;;12.79;100.00;97984.78;1616159;86;26954;-84
2022/10/01 02:50:23;;;;;;;;;;;;;;;12.69;100.00;97977.34;1606342;87;24079;-85
2022/10/01 02:52:50;;;;;;;;;;;;;;;12.56;100.00;97974.92;1618035;87;20342;-85
2022/10/01 02:55:18;;;;;;;;;;;;;;;12.53;100.00;97975.68;1616517;87;24661;-85
2022/10/01 02:57:43;;;;;;;;;;;;;;;12.59;100.00;97969.91;1624334;86;22796;-85
2022/10/01 03:00:11;;;;;;;;;;;;;;;12.60;100.00;97974.17;1619101;87;21844;-85
2022/10/01 03:02:37;;;;;;;;;;;;;;;12.64;100.00;97972.97;1615704;87;24416;-85
2022/10/01 03:05:04;;;;;;;;;;;;;;;12.68;100.00;97971.73;1615172;86;20307;-85
2022/10/01 03:07:33;;;;;;;;;;;;;;;12.75;100.00;97974.20;1622336;87;24763;-85
2022/10/01 03:09:59;;;;;;;;;;;;;;;12.82;100.00;97971.88;1613678;87;22048;-85
2022/10/01 03:12:25;;;;;;;;;;;;;;;12.82;100.00;97971.38;1616526;86;21041;-85
2022/10/01 03:14:52;;;;;;;;;;;;;;;12.82;100.00;97971.38;1624171;87;24453;-85
2022/10/01 03:17:26;;;;;;;;;;;;;;;12.83;100.00;97970.89;1622170;86;20232;-85
2022/10/01 03:19:51;;;;;;;;;;;;;;;12.83;100.00;97969.10;1616919;86;24771;-85
2022/10/01 03:22:21;;;;;;;;;;;;;;;12.85;100.00;97963.72;1621462;87;20312;-85
2022/10/01 03:24:51;;;;;;;;;;;;;;;12.87;100.00;97957.87;1609504;87;26015;-85
2022/10/01 03:27:18;;;;;;;;;;;;;;;12.79;100.00;97951.95;1620529;86;24499;-85
2022/10/01 03:29:44;;;;;;;;;;;;;;;12.75;100.00;97949.73;1621587;87;20226;-84
2022/10/01 03:32:15;;;;;;;;;;;;;;;12.69;100.00;97949.78;1620362;87;20818;-85
2022/10/01 03:34:41;;;;;;;;;;;;;;;12.64;100.00;97942.78;1615910;87;21911;-84
2022/10/01 03:37:07;;;;;;;;;;;;;;;12.57;100.00;97946.41;1619313;87;21061;-84
2022/10/01 03:39:36;;;;;;;;;;;;;;;12.65;100.00;97952.33;1625788;86;24402;-84
2022/10/01 03:42:04;;;;;;;;;;;;;;;12.65;100.00;97953.64;1619482;86;20292;-85
2022/10/01 03:44:31;;;;;;;;;;;;;;;12.71;100.00;97957.53;1620049;86;24791;-85
2022/10/01 03:46:58;;;;;;;;;;;;;;;12.67;100.00;97953.48;1620315;87;22778;-84
2022/10/01 03:49:24;;;;;;;;;;;;;;;12.55;100.00;97951.42;1621369;87;26219;-84
2022/10/01 03:51:50;;;;;;;;;;;;;;;12.47;100.00;97948.64;1621397;86;20335;-84
2022/10/01 03:54:16;;;;;;;;;;;;;;;12.44;100.00;97956.75;1622018;86;20233;-84
2022/10/01 03:56:42;;;;;;;;;;;;;;;12.51;100.00;97955.28;1624523;86;24762;-84
2022/10/01 03:59:14;;;;;;;;;;;;;;;12.46;100.00;97950.91;1620796;87;20263;-85
2022/10/01 04:01:40;;;;;;;;;;;;;;;12.50;100.00;97956.23;1621364;86;25994;-84
2022/10/01 04:04:12;;;;;;;;;;;;;;;12.62;100.00;97954.36;1621091;86;25282;-84
2022/10/01 04:06:38;;;;;;;;;;;;;;;12.72;100.00;97943.41;1619599;86;21104;-85
2022/10/01 04:09:04;;;;;;;;;;;;;;;12.83;100.00;97945.95;1620382;86;24927;-84
2022/10/01 04:11:31;;;;;;;;;;;;;;;12.90;100.00;97938.73;1621328;86;20280;-84
2022/10/01 04:13:57;;;;;;;;;;;;;;;12.93;100.00;97937.13;1620167;87;26181;-83
2022/10/01 04:16:23;;;;;;;;;;;;;;;12.92;100.00;97934.66;1622138;87;20264;-84
2022/10/01 04:18:50;;;;;;;;;;;;;;;12.96;100.00;97925.55;1618816;87;20510;-84
2022/10/01 04:21:16;;;;;;;;;;;;;;;12.98;100.00;97929.68;1637195;85;24812;-85
2022/10/01 04:23:49;;;;;;;;;;;;;;;12.96;100.00;97921.13;1649684;85;20245;-85
2022/10/01 04:26:17;;;;;;;;;;;;;;;12.91;100.00;97918.06;1650786;85;26094;-85
2022/10/01 04:28:45;;;;;;;;;;;;;;;12.90;100.00;97921.66;1649566;85;24655;-84
2022/10/01 04:31:24;;;;;;;;;;;;;;;12.87;100.00;97917.16;1650622;85;20489;-85
2022/10/01 04:33:51;;;;;;;;;;;;;;;12.91;100.00;97921.17;1646984;86;24775;-84
2022/10/01 04:36:17;;;;;;;;;;;;;;;12.82;100.00;97912.80;1651719;85;22913;-84
2022/10/01 04:38:43;;;;;;;;;;;;;;;12.82;100.00;97919.36;1650831;85;20909;-84
2022/10/01 04:41:09;;;;;;;;;;;;;;;12.84;100.00;97917.41;1651165;85;20353;-84
2022/10/01 04:43:35;;;;;;;;;;;;;;;12.81;100.00;97909.34;1650567;86;20316;-84
2022/10/01 04:46:02;;;;;;;;;;;;;;;12.81;100.00;97921.16;1648474;85;25401;-84
2022/10/01 04:48:29;;;;;;;;;;;;;;;12.80;100.00;97911.61;1647640;86;21985;-84
2022/10/01 04:51:03;;;;;;;;;;;;;;;12.91;100.00;97915.92;1647051;85;26210;-84
2022/10/01 04:53:29;;;;;;;;;;;;;;;12.92;100.00;97910.55;1650012;85;24534;-84
2022/10/01 04:55:55;;;;;;;;;;;;;;;12.90;100.00;97916.41;1655146;85;20292;-84
2022/10/01 04:58:23;;;;;;;;;;;;;;;12.87;100.00;97916.66;1651401;85;20165;-84
2022/10/01 05:00:49;;;;;;;;;;;;;;;12.87;100.00;97912.72;1652735;85;21983;-85
2022/10/01 05:03:17;;;;;;;;;;;;;;;12.93;100.00;97914.80;1654839;85;26541;-84
2022/10/01 05:05:43;;;;;;;;;;;;;;;12.84;100.00;97906.43;1652258;85;24498;-84
2022/10/01 05:08:09;;;;;;;;;;;;;;;12.76;100.00;97910.70;1654228;85;20568;-84
2022/10/01 05:10:36;;;;;;;;;;;;;;;12.66;100.00;97910.64;1650282;85;24827;-84
2022/10/01 05:13:07;;;;;;;;;;;;;;;12.64;100.00;97908.66;1651493;85;22651;-84
2022/10/01 05:15:34;;;;;;;;;;;;;;;12.63;100.00;97910.92;1652647;85;26001;-84
2022/10/01 05:18:00;;;;;;;;;;;;;;;12.61;100.00;97911.52;1650543;85;24725;-84
2022/10/01 05:20:28;;;;;;;;;;;;;;;12.60;100.00;97912.48;1650848;85;20236;-85
2022/10/01 05:22:55;;;;;;;;;;;;;;;12.63;100.00;97911.41;1625054;85;25050;-84
2022/10/01 05:25:21;;;;;;;;;;;;;;;12.66;100.00;97908.02;1638662;86;22018;-84
2022/10/01 05:27:48;;;;;;;;;;;;;;;12.63;100.00;97910.09;1630194;86;25967;-85
2022/10/01 05:30:23;;;;;;;;;;;;;;;12.62;100.00;97914.98;1623868;86;24679;-85
2022/10/01 05:32:50;;;;;;;;;;;;;;;12.65;100.00;97912.95;1626603;86;20220;-85
2022/10/01 05:35:16;;;;;;;;;;;;;;;12.70;100.00;97919.94;1623711;86;24820;-85
2022/10/01 05:37:50;;;;;;;;;;;;;;;12.69;100.00;97916.12;1628404;86;20837;-84
2022/10/01 05:40:26;;;;;;;;;;;;;;;12.73;100.00;97919.66;1603087;87;26971;-84
2022/10/01 05:43:05;;;;;;;;;;;;;;;12.82;100.00;97914.91;1626005;85;24669;-84
2022/10/01 05:45:30;;;;;;;;;;;;;;;12.90;100.00;97922.97;1633316;86;20177;-85
2022/10/01 05:47:58;;;;;;;;;;;;;;;13.02;100.00;97920.23;1622691;86;25616;-85
2022/10/01 05:50:24;;;;;;;;;;;;;;;13.13;100.00;97921.47;1628620;85;21957;-86
2022/10/01 05:53:01;;;;;;;;;;;;;;;13.18;100.00;97911.38;1626647;86;26001;-86
2022/10/01 05:55:32;;;;;;;;;;;;;;;13.24;100.00;97913.47;1628410;86;24425;-86
2022/10/01 05:58:03;;;;;;;;;;;;;;;13.29;100.00;97917.83;1631378;86;20290;-85
2022/10/01 06:00:29;;;;;;;;;;;;;;;13.33;100.00;97913.95;1629063;86;24758;-84
2022/10/01 06:03:04;;;;;;;;;;;;;;;13.34;100.00;97912.50;1629268;85;22873;-84
2022/10/01 06:05:32;;;;;;;;;;;;;;;13.36;100.00;97917.63;1626472;85;26168;-85
2022/10/01 06:08:05;;;;;;;;;;;;;;;13.38;100.00;97917.83;1630457;86;24123;-85
2022/10/01 06:10:37;;;;;;;;;;;;;;;13.37;100.00;97917.95;1632825;86;20337;-85
2022/10/01 06:13:06;;;;;;;;;;;;;;;13.35;100.00;97922.54;1629584;85;24773;-83
2022/10/01 06:15:36;;;;;;;;;;;;;;;13.34;100.00;97920.39;1631762;86;22139;-84
2022/10/01 06:18:04;;;;;;;;;;;;;;;13.35;100.00;97925.17;1627731;86;26701;-85
2022/10/01 06:20:30;;;;;;;;;;;;;;;13.35;100.00;97919.91;1630175;85;24424;-85
2022/10/01 06:22:56;;;;;;;;;;;;;;;13.36;100.00;97916.32;1649775;85;20727;-85
2022/10/01 06:25:29;;;;;;;;;;;;;;;13.36;100.00;97905.30;1654923;84;24798;-85
2022/10/01 06:27:56;;;;;;;;;;;;;;;13.38;100.00;97907.80;1659220;84;22067;-85
2022/10/01 06:30:25;;;;;;;;;;;;;;;13.40;100.00;97902.77;1661763;84;25997;-85
2022/10/01 06:32:52;;;;;;;;;;;;;;;13.44;100.00;97901.16;1658294;84;24527;-85
2022/10/01 06:35:19;;;;;;;;;;;;;;;13.44;100.00;97906.42;1662936;84;20255;-85
2022/10/01 06:37:46;;;;;;;;;;;;;;;13.44;100.00;97903.30;1663572;84;25581;-85
2022/10/01 06:40:12;;;;;;;;;;;;;;;13.48;100.00;97911.25;1658284;84;22036;-86
2022/10/01 06:42:38;;;;;;;;;;;;;;;13.48;100.00;97913.05;1627093;86;21052;-84
2022/10/01 06:45:05;;;;;;;;;;;;;;;13.51;100.00;97912.31;1645405;85;24517;-86
2022/10/01 06:47:37;;;;;;;;;;;;;;;13.54;100.00;97904.61;1653777;83;20249;-85
2022/10/01 06:50:03;;;;;;;;;;;;;;;13.54;100.00;97901.50;1652865;84;24607;-86
2022/10/01 06:52:48;;;;;;;;;;;;;;;13.60;100.00;97902.27;1618010;86;22053;-86
2022/10/01 06:55:16;;;;;;;;;;;;;;;13.64;100.00;97908.90;1655894;84;26010;-86
2022/10/01 06:57:49;;;;;;;;;;;;;;;13.68;100.00;97905.53;1655004;84;25499;-86
2022/10/01 07:00:16;;;;;;;;;;;;;;;13.72;100.00;97897.22;1656240;84;20191;-86
2022/10/01 07:02:42;;;;;;;;;;;;;;;13.78;100.00;97893.20;1655562;84;24425;-85
2022/10/01 07:05:16;;;;;;;;;;;;;;;13.81;100.00;97891.11;1652811;84;20218;-85
2022/10/01 07:07:47;;;;;;;;;;;;;;;13.81;100.00;97884.53;1654891;84;25589;-86
2022/10/01 07:10:20;;;;;;;;;;;;;;;13.80;100.00;97883.38;1660236;84;24595;-85
2022/10/01 07:12:50;;;;;;;;;;;;;;;13.73;100.00;97879.16;1658341;84;20309;-86
2022/10/01 07:15:18;;;;;;;;;;;;;;;13.76;100.00;97878.86;1656812;84;24963;-85
2022/10/01 07:17:50;;;;;;;;;;;;;;;13.89;100.00;97876.43;1655217;84;21979;-86
2022/10/01 07:20:18;;;;;;;;;;;;;;;13.99;100.00;97876.75;1655111;84;26181;-85
2022/10/01 07:22:51;;;;;;;;;;;;;;;14.09;100.00;97877.55;1661480;84;25224;-85
2022/10/01 07:25:24;;;;;;;;;;;;;;;14.18;100.00;97873.26;1659003;84;20329;-84
2022/10/01 07:27:55;;;;;;;;;;;;;;;14.24;100.00;97876.60;1658995;84;25058;-85
2022/10/01 07:30:22;;;;;;;;;;;;;;;14.29;100.00;97868.30;1658975;84;22000;-85
2022/10/01 07:32:48;;;;;;;;;;;;;;;14.36;100.00;97870.67;1629268;86;26000;-85
2022/10/01 07:35:15;;;;;;;;;;;;;;;14.39;100.00;97863.86;1625167;86;20350;-85
2022/10/01 07:37:41;;;;;;;;;;;;;;;14.37;100.00;97858.73;1626230;87;20271;-85
2022/10/01 07:40:07;;;;;;;;;;;;;;;14.42;100.00;97868.33;1630800;86;25036;-85
2022/10/01 07:42:34;;;;;;;;;;;;;;;14.49;100.00;97868.59;1629800;86;21933;-85
2022/10/01 07:45:03;;;;;;;;;;;;;;;14.57;100.00;97865.56;1630942;85;26866;-85
2022/10/01 07:47:28;;;;;;;;;;;;;;;14.56;100.00;97857.83;1630927;86;24553;-85
2022/10/01 07:49:55;;;;;;;;;;;;;;;14.59;100.00;97862.78;1629128;86;20268;-85
2022/10/01 07:52:21;;;;;;;;;;;;;;;14.64;100.00;97865.81;1627436;86;24998;-84
2022/10/01 07:54:47;;;;;;;;;;;;;;;14.63;100.00;97855.76;1630088;86;22054;-84
2022/10/01 07:57:15;;;;;;;;;;;;;;;14.64;100.00;97855.27;1629235;86;20794;-84
2022/10/01 07:59:42;;;;;;;;;;;;;;;14.66;100.00;97858.60;1631923;86;24608;-85
2022/10/01 08:02:15;;;;;;;;;;;;;;;14.68;100.00;97860.58;1597839;88;20223;-84
2022/10/01 08:07:28;;;;;;;;;;;;;;;14.68;100.00;97861.07;1631853;85;22817;-84
2022/10/01 08:09:55;;;;;;;;;;;;;;;14.70;100.00;97862.59;1664035;84;26032;-84
2022/10/01 08:12:27;;;;;;;;;;;;;;;14.68;100.00;97859.75;1663209;83;25474;-84
2022/10/01 08:14:56;;;;;;;;;;;;;;;14.67;100.00;97861.59;1629168;86;20271;-84
2022/10/01 08:17:25;;;;;;;;;;;;;;;14.70;100.00;97852.06;1630222;85;25280;-84
2022/10/01 08:19:50;;;;;;;;;;;;;;;14.72;100.00;97861.97;1629717;85;22158;-85
2022/10/01 08:22:16;;;;;;;;;;;;;;;14.74;100.00;97866.59;1639038;84;21047;-85
2022/10/01 08:24:46;;;;;;;;;;;;;;;14.72;100.00;97853.23;1652464;84;24519;-85
2022/10/01 08:27:12;;;;;;;;;;;;;;;14.71;100.00;97855.04;1657837;84;20346;-84
2022/10/01 08:29:47;;;;;;;;;;;;;;;14.71;100.00;97855.52;1651678;85;20242;-84
2022/10/01 08:32:13;;;;;;;;;;;;;;;14.72;100.00;97851.44;1650992;85;21993;-85
2022/10/01 08:34:40;;;;;;;;;;;;;;;14.74;100.00;97849.46;1652410;84;26049;-85
2022/10/01 08:37:06;;;;;;;;;;;;;;;14.80;100.00;97846.73;1651749;84;24595;-85
2022/10/01 08:39:32;;;;;;;;;;;;;;;14.85;100.00;97836.09;1647587;84;20286;-84
2022/10/01 08:42:07;;;;;;;;;;;;;;;14.88;100.00;97834.49;1649282;84;24780;-85
2022/10/01 08:44:40;;;;;;;;;;;;;;;14.96;100.00;97839.00;1649942;84;21971;-85
2022/10/01 08:47:07;;;;;;;;;;;;;;;15.05;100.00;97838.92;1649148;84;26068;-85
2022/10/01 08:49:38;;;;;;;;;;;;;;;15.12;100.00;97831.73;1647430;85;24616;-85
2022/10/01 08:52:21;;;;;;;;;;;;;;;15.19;100.00;97831.00;1629401;86;20335;-85
2022/10/01 08:54:58;;;;;;;;;;;;;;;15.27;100.00;97833.73;1650220;85;24778;-85
2022/10/01 08:57:26;;;;;;;;;;;;;;;15.30;100.00;97829.95;1649352;85;22043;-85
2022/10/01 09:00:00;;;;;;;;;;;;;;;15.31;100.00;97839.03;1649502;84;26000;-84
2022/10/01 09:02:34;;;;;;;;;;;;;;;15.30;100.00;97833.41;1651682;86;23967;-85
2022/10/01 09:05:06;;;;;;;;;;;;;;;15.27;100.00;97832.41;1650844;85;20191;-85
2022/10/01 09:07:43;;;;;;;;;;;;;;;15.28;100.00;97836.67;1651096;85;24986;-85
2022/10/01 09:10:11;;;;;;;;;;;;;;;15.33;100.00;97833.58;1650610;84;21997;-85
2022/10/01 09:12:42;;;;;;;;;;;;;;;15.36;100.00;97830.66;1649671;84;25990;-85
2022/10/01 09:15:12;;;;;;;;;;;;;;;15.35;100.00;97831.63;1654779;85;25250;-85
2022/10/01 09:17:57;;;;;;;;;;;;;;;15.33;100.00;97831.78;1649898;85;20361;-85
2022/10/01 09:20:32;;;;;;;;;;;;;;;15.35;100.00;97835.10;1650623;84;25600;-85
2022/10/01 09:23:11;;;;;;;;;;;;;;;15.44;100.00;97835.50;1654057;84;22894;-84
2022/10/01 09:25:38;;;;;;;;;;;;;;;15.52;100.00;97827.36;1660076;84;26158;-85
2022/10/01 09:28:12;;;;;;;;;;;;;;;15.59;100.00;97828.41;1659972;84;24662;-85
2022/10/01 09:30:43;;;;;;;;;;;;;;;15.63;100.00;97836.35;1657503;85;20235;-85
2022/10/01 09:33:23;;;;;;;;;;;;;;;15.62;100.00;97832.88;1660860;84;24822;-85
2022/10/01 09:35:53;;;;;;;;;;;;;;;15.65;100.00;97833.08;1657909;84;22093;-84
2022/10/01 09:38:21;;;;;;;;;;;;;;;15.67;100.00;97829.78;1658190;85;25288;-85
2022/10/01 09:40:57;;;;;;;;;;;;;;;15.65;100.00;97826.00;1662523;85;24530;-85
2022/10/01 09:43:25;;;;;;;;;;;;;;;15.61;100.00;97827.75;1659017;85;20313;-85
2022/10/01 09:45:51;;;;;;;;;;;;;;;15.63;100.00;97827.12;1660155;84;25717;-85
2022/10/01 09:48:26;;;;;;;;;;;;;;;15.63;100.00;97823.16;1660762;84;21999;-85
2022/10/01 09:50:57;;;;;;;;;;;;;;;15.67;100.00;97824.02;1623667;85;25872;-86
2022/10/01 09:53:25;;;;;;;;;;;;;;;15.65;100.00;97823.36;1661327;84;25068;-85
2022/10/01 09:55:52;;;;;;;;;;;;;;;15.59;100.00;97823.97;1660263;84;20285;-85
2022/10/01 09:58:21;;;;;;;;;;;;;;;15.58;100.00;97821.48;1660669;84;24761;-86
2022/10/01 10:00:53;;;;;;;;;;;;;;;15.50;100.00;97819.07;1662077;84;21860;-85
2022/10/01 10:03:29;;;;;;;;;;;;;;;15.48;100.00;97814.95;1659589;84;26777;-86
2022/10/01 10:05:58;;;;;;;;;;;;;;;15.43;100.00;97808.82;1660615;84;24497;-85
2022/10/01 10:08:35;;;;;;;;;;;;;;;15.38;100.00;97812.38;1661399;84;20598;-85
2022/10/01 10:11:13;;;;;;;;;;;;;;;15.36;100.00;97803.81;1660983;85;25550;-85
2022/10/01 10:13:43;;;;;;;;;;;;;;;15.36;100.00;97805.61;1658161;84;22135;-85
2022/10/01 10:16:17;;;;;;;;;;;;;;;15.33;100.00;97798.82;1660806;85;26892;-85
2022/10/01 10:18:45;;;;;;;;;;;;;;;15.32;100.00;97802.47;1659792;85;24464;-85
2022/10/01 10:21:19;;;;;;;;;;;;;;;15.33;100.00;97794.87;1660276;84;20265;-85
2022/10/01 10:23:47;;;;;;;;;;;;;;;15.33;100.00;97790.91;1662403;84;24790;-85
2022/10/01 10:26:20;;;;;;;;;;;;;;;15.32;100.00;97793.23;1663093;84;22011;-86
2022/10/01 10:28:46;;;;;;;;;;;;;;;15.31;100.00;97786.79;1658959;84;26813;-84
2022/10/01 10:31:19;;;;;;;;;;;;;;;15.28;100.00;97781.80;1663474;84;24736;-85
2022/10/01 10:33:53;;;;;;;;;;;;;;;15.26;100.00;97775.87;1661244;84;20309;-85
2022/10/01 10:36:20;;;;;;;;;;;;;;;15.28;100.00;97766.81;1658872;84;24736;-85
2022/10/01 10:38:48;;;;;;;;;;;;;;;15.29;100.00;97761.05;1658922;85;22056;-85
2022/10/01 10:41:18;;;;;;;;;;;;;;;15.31;100.00;97757.30;1662570;85;26755;-85
2022/10/01 10:43:47;;;;;;;;;;;;;;;15.31;100.00;97758.62;1659274;84;24487;-85
2022/10/01 10:46:14;;;;;;;;;;;;;;;15.29;100.00;97757.94;1660885;84;20286;-85
2022/10/01 10:48:43;;;;;;;;;;;;;;;15.27;100.00;97752.00;1659062;85;24775;-85
2022/10/01 10:51:09;;;;;;;;;;;;;;;15.28;100.00;97746.21;1659612;84;21985;-85
2022/10/01 10:53:40;;;;;;;;;;;;;;;15.31;100.00;97737.53;1660712;84;26092;-85
2022/10/01 10:56:07;;;;;;;;;;;;;;;15.33;100.00;97734.72;1660025;84;24593;-84
2022/10/01 10:58:41;;;;;;;;;;;;;;;15.38;100.00;97733.27;1666210;84;20255;-85
2022/10/01 11:01:12;;;;;;;;;;;;;;;15.40;100.00;97730.48;1657895;86;24778;-85
2022/10/01 11:03:40;;;;;;;;;;;;;;;15.40;100.00;97714.67;1658133;85;21985;-85
2022/10/01 11:06:10;;;;;;;;;;;;;;;15.42;100.00;97711.40;1664205;84;26013;-85
2022/10/01 11:08:37;;;;;;;;;;;;;;;15.42;100.00;97702.17;1663805;84;25119;-85
2022/10/01 11:11:14;;;;;;;;;;;;;;;15.47;100.00;97695.45;1660438;84;20329;-85
2022/10/01 11:13:44;;;;;;;;;;;;;;;15.56;100.00;97691.06;1662716;85;25048;-85
2022/10/01 11:16:19;;;;;;;;;;;;;;;15.65;100.00;97689.32;1659735;85;22026;-85
2022/10/01 11:18:47;;;;;;;;;;;;;;;15.72;100.00;97676.64;1659073;84;26636;-85
2022/10/01 11:21:18;;;;;;;;;;;;;;;15.82;100.00;97681.80;1660499;84;24493;-84
2022/10/01 11:24:01;;;;;;;;;;;;;;;15.88;100.00;97674.08;1658375;84;20346;-85
2022/10/01 11:26:41;;;;;;;;;;;;;;;15.92;100.00;97683.02;1655047;84;20266;-85
2022/10/01 11:29:26;;;;;;;;;;;;;;;15.96;100.00;97671.97;1649802;85;22050;-84
2022/10/01 11:32:03;;;;;;;;;;;;;;;16.00;100.00;97670.66;1650027;85;26109;-85
2022/10/01 11:34:36;;;;;;;;;;;;;;;16.02;100.00;97666.06;1654108;84;24417;-84
2022/10/01 11:37:23;;;;;;;;;;;;;;;16.06;100.00;97657.32;1651900;85;20211;-85
2022/10/01 11:39:50;;;;;;;;;;;;;;;16.08;100.00;97663.28;1653434;85;25736;-85
2022/10/01 11:42:18;;;;;;;;;;;;;;;16.08;100.00;97657.51;1652369;84;22052;-85
2022/10/01 11:44:46;;;;;;;;;;;;;;;16.10;100.00;97662.61;1653185;84;26013;-84
2022/10/01 11:47:14;;;;;;;;;;;;;;;16.10;100.00;97659.97;1650281;85;24576;-84
2022/10/01 11:49:49;;;;;;;;;;;;;;;16.07;100.00;97655.84;1652366;84;20458;-84
2022/10/01 11:52:19;;;;;;;;;;;;;;;16.05;100.00;97647.74;1653062;84;24997;-85
2022/10/01 11:54:47;;;;;;;;;;;;;;;16.04;100.00;97642.95;1653568;84;22009;-85
2022/10/01 12:00:11;;;;;;;;;;;;;;;16.11;100.00;97629.95;1657748;84;25413;-84
2022/10/01 12:02:51;;;;;;;;;;;;;;;16.15;100.00;97622.86;1656357;85;20497;-85
2022/10/01 12:05:18;;;;;;;;;;;;;;;16.19;100.00;97622.89;1655309;84;24746;-84
2022/10/01 12:07:46;;;;;;;;;;;;;;;16.23;100.00;97616.29;1654754;85;21913;-85
2022/10/01 12:10:17;;;;;;;;;;;;;;;16.26;100.00;97611.16;1657352;84;25982;-85
2022/10/01 12:12:44;;;;;;;;;;;;;;;16.32;100.00;97613.98;1654271;85;24679;-85
2022/10/01 12:15:18;;;;;;;;;;;;;;;16.35;100.00;97611.52;1601776;84;20521;-85
2022/10/01 12:17:55;;;;;;;;;;;;;;;16.37;100.00;97611.34;1650196;84;25576;-86
2022/10/01 12:20:25;;;;;;;;;;;;;;;16.39;100.00;97610.69;1655909;84;22204;-85
2022/10/01 12:22:55;;;;;;;;;;;;;;;16.40;100.00;97601.78;1654329;84;25952;-86
2022/10/01 12:25:22;;;;;;;;;;;;;;;16.43;100.00;97600.13;1653455;84;25405;-85
2022/10/01 12:27:50;;;;;;;;;;;;;;;16.44;100.00;97596.50;1654301;84;20221;-85
2022/10/01 12:30:30;;;;;;;;;;;;;;;16.47;100.00;97597.51;1623011;87;24742;-85
2022/10/01 12:33:14;;;;;;;;;;;;;;;16.47;100.00;97593.05;1620801;86;22162;-86
2022/10/01 12:35:58;;;;;;;;;;;;;;;16.47;100.00;97600.15;1620976;86;26220;-85
2022/10/01 12:38:27;;;;;;;;;;;;;;;16.47;100.00;97594.38;1621597;87;24501;-86
2022/10/01 12:41:04;;;;;;;;;;;;;;;16.48;100.00;97589.40;1622214;86;20299;-86
2022/10/01 12:43:38;;;;;;;;;;;;;;;16.53;100.00;97587.61;1624267;86;24758;-86
2022/10/01 12:46:14;;;;;;;;;;;;;;;16.55;100.00;97590.41;1619139;86;22802;-87
2022/10/01 12:49:01;;;;;;;;;;;;;;;16.54;100.00;97588.75;1652781;84;25954;-85
2022/10/01 12:51:38;;;;;;;;;;;;;;;16.56;100.00;97580.66;1621358;87;24584;-85
2022/10/01 12:54:26;;;;;;;;;;;;;;;16.57;100.00;97587.11;1619899;87;20150;-85